createdAt,value
2019-01-14T00:00:40.830Z,3.80
2019-01-14T00:03:10.320Z,3.80
2019-01-14T00:05:39.786Z,3.90
2019-01-14T00:08:09.462Z,3.90
2019-01-14T00:10:38.951Z,3.80
2019-01-14T00:13:08.527Z,3.70
2019-01-14T00:15:38.030Z,3.60
2019-01-14T00:18:07.491Z,3.60
2019-01-14T00:20:36.972Z,3.60
2019-01-14T00:23:06.442Z,3.60
2019-01-14T00:25:36.044Z,3.60
2019-01-14T00:28:05.529Z,3.60
2019-01-14T00:30:35.242Z,3.50
2019-01-14T00:33:04.925Z,3.50
2019-01-14T00:35:34.397Z,3.50
2019-01-14T00:41:11.662Z,3.50
2019-01-14T00:43:41.150Z,3.50
2019-01-14T00:46:10.615Z,3.60
2019-01-14T00:48:40.106Z,3.80
2019-01-14T00:51:09.569Z,4.00
2019-01-14T00:53:39.029Z,4.10
2019-01-14T00:56:08.542Z,4.10
2019-01-14T00:58:38.004Z,4.10
2019-01-14T01:01:07.535Z,4.20
2019-01-14T01:03:37.025Z,4.10
2019-01-14T01:06:06.696Z,4.10
2019-01-14T01:08:36.183Z,4.10
2019-01-14T01:11:06.187Z,4.10
2019-01-14T01:13:35.648Z,4.10
2019-01-14T01:16:05.111Z,4.00
2019-01-14T01:18:34.629Z,4.10
2019-01-14T01:21:04.499Z,4.00
2019-01-14T01:23:33.957Z,4.00
2019-01-14T01:26:03.450Z,4.10
2019-01-14T01:28:32.921Z,4.10
2019-01-14T01:31:02.389Z,4.10
2019-01-14T01:33:31.879Z,4.00
2019-01-14T01:36:01.351Z,3.90
2019-01-14T01:38:30.813Z,3.90
2019-01-14T01:41:00.305Z,3.80
2019-01-14T01:43:29.769Z,3.70
2019-01-14T01:45:59.238Z,3.60
2019-01-14T01:48:28.751Z,3.60
2019-01-14T01:50:58.363Z,3.60
2019-01-14T01:53:27.823Z,3.60
2019-01-14T01:55:57.383Z,3.60
2019-01-14T01:58:26.779Z,3.50
2019-01-14T02:00:56.238Z,3.40
2019-01-14T02:03:25.736Z,3.40
2019-01-14T02:05:55.213Z,3.40
2019-01-14T02:08:24.689Z,3.30
2019-01-14T02:10:54.185Z,3.30
2019-01-14T02:13:23.647Z,3.30
2019-01-14T02:15:53.117Z,3.30
2019-01-14T02:18:22.601Z,3.40
2019-01-14T02:20:52.064Z,3.50
2019-01-14T02:23:21.544Z,3.60
2019-01-14T02:25:51.059Z,3.60
2019-01-14T02:28:20.632Z,3.70
2019-01-14T02:30:50.042Z,3.80
2019-01-14T02:33:19.548Z,3.80
2019-01-14T02:35:49.221Z,3.80
2019-01-14T02:38:18.751Z,3.70
2019-01-14T02:40:48.309Z,3.70
2019-01-14T02:43:17.773Z,3.70
2019-01-14T02:45:47.243Z,3.80
2019-01-14T02:48:16.724Z,3.80
2019-01-14T02:50:46.208Z,3.80
2019-01-14T02:53:15.664Z,3.90
2019-01-14T02:55:45.164Z,3.90
2019-01-14T02:58:14.627Z,4.00
2019-01-14T03:00:44.084Z,4.20
2019-01-14T03:03:13.494Z,4.30
2019-01-14T03:05:42.940Z,4.30
2019-01-14T03:08:12.417Z,4.40
2019-01-14T03:10:41.963Z,4.40
2019-01-14T03:13:11.423Z,4.40
2019-01-14T03:15:40.903Z,4.30
2019-01-14T03:18:10.397Z,4.30
2019-01-14T03:20:39.858Z,4.30
2019-01-14T03:23:09.325Z,4.20
2019-01-14T03:25:38.799Z,4.10
2019-01-14T03:28:08.261Z,4.00
2019-01-14T03:30:37.764Z,3.90
2019-01-14T03:33:07.301Z,4.00
2019-01-14T03:35:36.766Z,3.90
2019-01-14T03:38:06.382Z,4.00
2019-01-14T03:40:35.877Z,4.10
2019-01-14T03:43:05.382Z,4.10
2019-01-14T03:45:34.841Z,4.10
2019-01-14T03:48:04.333Z,4.10
2019-01-14T03:50:33.723Z,4.00
2019-01-14T03:53:03.201Z,4.00
2019-01-14T03:55:32.719Z,3.90
2019-01-14T03:58:02.231Z,3.80
2019-01-14T04:00:31.695Z,3.80
2019-01-14T04:03:01.215Z,3.80
2019-01-14T04:05:30.668Z,3.70
2019-01-14T04:08:00.136Z,3.80
2019-01-14T04:10:29.573Z,3.90
2019-01-14T04:12:59.030Z,3.90
2019-01-14T04:15:28.490Z,3.90
2019-01-14T04:17:57.982Z,4.00
2019-01-14T04:20:27.452Z,4.10
2019-01-14T04:22:56.914Z,4.00
2019-01-14T04:25:26.407Z,4.00
2019-01-14T04:27:55.993Z,4.00
2019-01-14T04:30:25.454Z,3.90
2019-01-14T04:32:54.999Z,3.70
2019-01-14T04:35:24.448Z,3.70
2019-01-14T04:37:53.925Z,3.60
2019-01-14T04:40:23.421Z,3.50
2019-01-14T04:42:52.887Z,3.50
2019-01-14T04:45:22.347Z,3.40
2019-01-14T04:47:51.835Z,3.40
2019-01-14T04:50:22.035Z,3.30
2019-01-14T04:52:51.487Z,3.30
2019-01-14T04:55:20.986Z,3.20
2019-01-14T04:57:50.461Z,3.20
2019-01-14T05:00:23.597Z,3.10
2019-01-14T05:02:53.105Z,3.00
2019-01-14T05:05:22.562Z,3.00
2019-01-14T05:07:52.033Z,3.10
2019-01-14T05:10:22.228Z,3.30
2019-01-14T05:12:51.707Z,3.40
2019-01-14T05:15:21.188Z,3.60
2019-01-14T05:17:50.702Z,3.70
2019-01-14T05:20:23.210Z,3.90
2019-01-14T05:22:52.871Z,4.00
2019-01-14T05:25:22.379Z,4.20
2019-01-14T05:27:51.835Z,4.30
2019-01-14T05:30:21.799Z,4.40
2019-01-14T05:32:51.278Z,4.60
2019-01-14T05:35:20.688Z,4.70
2019-01-14T05:37:50.179Z,4.70
2019-01-14T05:40:24.357Z,4.60
2019-01-14T05:42:53.831Z,4.70
2019-01-14T05:45:23.303Z,4.60
2019-01-14T05:47:52.820Z,4.50
2019-01-14T05:50:22.287Z,4.50
2019-01-14T05:52:51.758Z,4.40
2019-01-14T05:55:21.255Z,4.50
2019-01-14T05:57:50.718Z,4.50
2019-01-14T06:00:24.251Z,4.70
2019-01-14T06:02:53.740Z,4.80
2019-01-14T06:05:23.308Z,4.80
2019-01-14T06:07:52.854Z,4.80
2019-01-14T06:10:22.352Z,4.80
2019-01-14T06:12:51.803Z,4.90
2019-01-14T06:15:21.280Z,5.00
2019-01-14T06:17:50.776Z,5.10
2019-01-14T06:20:24.976Z,5.10
2019-01-14T06:22:54.455Z,5.10
2019-01-14T06:25:23.958Z,5.00
2019-01-14T06:27:53.410Z,5.00
2019-01-14T06:30:29.430Z,4.90
2019-01-14T06:32:59.229Z,4.90
2019-01-14T06:35:28.704Z,4.90
2019-01-14T06:37:58.200Z,5.00
2019-01-14T06:40:27.661Z,5.00
2019-01-14T06:42:57.247Z,4.90
2019-01-14T06:45:26.722Z,4.80
2019-01-14T06:47:56.291Z,4.80
2019-01-14T06:50:25.793Z,4.80
2019-01-14T06:52:55.258Z,4.80
2019-01-14T06:55:24.664Z,4.70
2019-01-14T06:57:54.152Z,4.70
2019-01-14T07:00:25.906Z,4.70
2019-01-14T07:02:55.379Z,4.60
2019-01-14T07:05:24.860Z,4.50
2019-01-14T07:07:59.543Z,4.50
2019-01-14T07:10:27.602Z,4.50
2019-01-14T07:12:57.117Z,4.50
2019-01-14T07:15:26.575Z,4.40
2019-01-14T07:17:56.130Z,4.30
2019-01-14T07:20:25.809Z,4.20
2019-01-14T07:22:55.603Z,4.10
2019-01-14T07:25:25.042Z,4.10
2019-01-14T07:27:54.573Z,4.00
2019-01-14T07:30:24.373Z,4.00
2019-01-14T07:32:54.333Z,3.90
2019-01-14T07:35:23.849Z,3.90
2019-01-14T07:37:53.322Z,4.00
2019-01-14T07:40:22.796Z,4.10
2019-01-14T07:42:52.384Z,4.20
2019-01-14T07:45:21.859Z,4.20
2019-01-14T07:47:51.322Z,4.30
2019-01-14T07:50:20.819Z,4.30
2019-01-14T07:52:50.214Z,4.40
2019-01-14T07:55:19.677Z,4.50
2019-01-14T07:57:49.125Z,4.50
2019-01-14T08:00:24.772Z,4.60
2019-01-14T08:02:54.323Z,4.50
2019-01-14T08:05:23.957Z,4.40
2019-01-14T08:07:53.518Z,4.40
2019-01-14T08:10:23.009Z,4.40
2019-01-14T08:12:52.474Z,4.50
2019-01-14T08:15:22.433Z,4.60
2019-01-14T08:17:51.945Z,4.80
2019-01-14T08:20:21.400Z,5.00
2019-01-14T08:22:50.914Z,5.30
2019-01-14T08:25:20.418Z,5.50
2019-01-14T08:27:49.885Z,5.60
2019-01-14T08:30:21.953Z,5.80
2019-01-14T08:32:51.539Z,5.90
2019-01-14T08:35:21.106Z,6.00
2019-01-14T08:37:50.613Z,6.20
2019-01-14T08:40:20.115Z,6.40
2019-01-14T08:42:49.685Z,6.60
2019-01-14T08:45:19.193Z,6.70
2019-01-14T08:47:48.771Z,6.80
2019-01-14T08:50:19.550Z,6.90
2019-01-14T08:52:49.014Z,7.00
2019-01-14T08:55:18.606Z,7.00
2019-01-14T08:57:54.493Z,7.10
2019-01-14T09:00:20.665Z,7.20
2019-01-14T09:02:50.383Z,7.20
2019-01-14T09:05:19.844Z,7.20
2019-01-14T09:07:49.312Z,7.20
2019-01-14T09:10:22.350Z,7.30
2019-01-14T09:12:51.922Z,7.50
2019-01-14T09:15:21.493Z,7.60
2019-01-14T09:17:51.026Z,7.70
2019-01-14T09:20:23.837Z,7.80
2019-01-14T09:22:53.306Z,7.90
2019-01-14T09:25:22.785Z,8.00
2019-01-14T09:27:52.254Z,8.10
2019-01-14T09:30:24.116Z,8.30
2019-01-14T09:32:53.618Z,8.60
2019-01-14T09:35:23.089Z,8.80
2019-01-14T09:37:52.543Z,8.90
2019-01-14T09:40:23.629Z,8.80
2019-01-14T09:42:53.100Z,8.90
2019-01-14T09:45:22.559Z,9.00
2019-01-14T09:47:52.064Z,9.10
2019-01-14T09:50:21.526Z,9.10
2019-01-14T09:52:50.997Z,9.10
2019-01-14T09:55:20.713Z,9.00
2019-01-14T09:57:50.192Z,8.90
2019-01-14T10:00:19.605Z,9.00
2019-01-14T10:02:49.099Z,9.20
2019-01-14T10:05:19.484Z,9.30
2019-01-14T10:07:48.931Z,9.50
2019-01-14T10:10:19.527Z,9.40
2019-01-14T10:12:49.009Z,9.60
2019-01-14T10:15:25.106Z,9.70
2019-01-14T10:17:58.924Z,10.00
2019-01-14T10:20:28.413Z,10.30
2019-01-14T10:22:57.906Z,10.40
2019-01-14T10:25:27.390Z,10.70
2019-01-14T10:27:56.851Z,10.80
2019-01-14T10:30:26.454Z,10.80
2019-01-14T10:32:55.924Z,11.10
2019-01-14T10:35:25.396Z,11.50
2019-01-14T10:37:55.257Z,11.90
2019-01-14T10:40:24.728Z,12.30
2019-01-14T10:42:54.236Z,12.80
2019-01-14T10:45:24.529Z,13.10
2019-01-14T10:47:54.001Z,13.50
2019-01-14T10:50:23.468Z,13.70
2019-01-14T10:52:52.960Z,14.00
2019-01-14T10:55:22.457Z,15.00
2019-01-14T10:57:51.926Z,16.80
2019-01-14T11:00:26.878Z,19.90
2019-01-14T11:02:56.455Z,22.60
2019-01-14T11:05:28.424Z,25.60
2019-01-14T11:07:57.937Z,26.50
2019-01-14T11:10:27.533Z,25.80
2019-01-14T11:12:57.040Z,25.50
2019-01-14T11:15:26.649Z,24.80
2019-01-14T11:17:56.118Z,25.50
2019-01-14T11:20:30.761Z,27.00
2019-01-14T11:23:00.453Z,27.40
2019-01-14T11:25:29.927Z,28.10
2019-01-14T11:27:59.397Z,27.60
2019-01-14T11:30:30.396Z,27.40
2019-01-14T11:32:59.861Z,26.60
2019-01-14T11:35:29.330Z,26.60
2019-01-14T11:37:59.022Z,26.00
2019-01-14T11:40:32.482Z,23.30
2019-01-14T11:43:01.959Z,21.70
2019-01-14T11:45:31.458Z,21.60
2019-01-14T11:48:00.942Z,21.50
2019-01-14T11:50:30.436Z,21.80
2019-01-14T11:52:59.941Z,22.60
2019-01-14T11:55:29.408Z,23.60
2019-01-14T11:57:58.882Z,25.40
2019-01-14T12:00:28.525Z,27.60
2019-01-14T12:02:58.001Z,27.90
2019-01-14T12:05:27.647Z,27.30
2019-01-14T12:07:57.145Z,27.00
2019-01-14T12:10:26.628Z,26.70
2019-01-14T12:12:56.091Z,26.00
2019-01-14T12:15:27.122Z,24.40
2019-01-14T12:17:56.603Z,23.30
2019-01-14T12:20:26.079Z,21.50
2019-01-14T12:22:55.602Z,18.50
2019-01-14T12:25:25.117Z,16.40
2019-01-14T12:27:54.595Z,15.40
2019-01-14T12:30:33.574Z,14.60
2019-01-14T12:33:03.045Z,14.10
2019-01-14T12:35:32.520Z,12.60
2019-01-14T12:38:02.017Z,11.80
2019-01-14T12:40:31.400Z,12.10
2019-01-14T12:43:00.894Z,11.50
2019-01-14T12:45:30.410Z,12.20
2019-01-14T12:47:59.897Z,12.70
2019-01-14T12:50:29.362Z,16.40
2019-01-14T12:52:58.913Z,15.20
2019-01-14T12:55:28.438Z,15.50
2019-01-14T12:57:57.919Z,16.20
2019-01-14T13:00:31.197Z,18.30
2019-01-14T13:03:00.662Z,19.80
2019-01-14T13:05:30.129Z,20.30
2019-01-14T13:07:59.546Z,21.30
2019-01-14T13:10:29.042Z,21.70
2019-01-14T13:12:58.507Z,21.10
2019-01-14T13:15:28.330Z,19.40
2019-01-14T13:17:57.824Z,17.80
2019-01-14T13:20:27.219Z,16.90
2019-01-14T13:22:56.737Z,15.10
2019-01-14T13:25:26.210Z,15.60
2019-01-14T13:27:55.686Z,16.40
2019-01-14T13:30:28.100Z,16.10
2019-01-14T13:32:58.071Z,14.90
2019-01-14T13:35:27.490Z,15.20
2019-01-14T13:37:57.264Z,15.30
2019-01-14T13:40:26.663Z,15.00
2019-01-14T13:42:56.139Z,14.80
2019-01-14T13:45:25.745Z,14.90
2019-01-14T13:47:55.392Z,15.30
2019-01-14T13:50:26.457Z,15.60
2019-01-14T13:52:55.973Z,15.30
2019-01-14T13:55:26.485Z,14.40
2019-01-14T13:57:59.942Z,13.50
2019-01-14T14:00:27.583Z,12.90
2019-01-14T14:02:57.073Z,12.80
2019-01-14T14:05:26.546Z,13.30
2019-01-14T14:07:56.055Z,13.30
2019-01-14T14:10:28.547Z,12.80
2019-01-14T14:12:58.084Z,12.30
2019-01-14T14:15:27.585Z,12.70
2019-01-14T14:17:57.052Z,13.70
2019-01-14T14:20:26.534Z,13.50
2019-01-14T14:22:56.050Z,15.00
2019-01-14T14:25:25.540Z,16.00
2019-01-14T14:27:55.012Z,17.50
2019-01-14T14:30:33.835Z,18.60
2019-01-14T14:33:03.343Z,18.90
2019-01-14T14:35:32.829Z,18.50
2019-01-14T14:38:02.332Z,18.40
2019-01-14T14:40:31.826Z,17.70
2019-01-14T14:43:01.345Z,16.20
2019-01-14T14:45:30.847Z,13.80
2019-01-14T14:48:00.317Z,12.40
2019-01-14T14:50:29.810Z,11.20
2019-01-14T14:52:59.316Z,10.90
2019-01-14T14:55:28.798Z,11.00
2019-01-14T14:57:58.265Z,10.90
2019-01-14T15:00:27.790Z,10.70
2019-01-14T15:02:57.272Z,10.60
2019-01-14T15:05:26.788Z,10.60
2019-01-14T15:07:56.295Z,10.40
2019-01-14T15:10:27.575Z,10.00
2019-01-14T15:12:57.047Z,9.60
2019-01-14T15:15:27.239Z,9.20
2019-01-14T15:17:56.737Z,8.90
2019-01-14T15:20:26.210Z,8.80
2019-01-14T15:22:55.705Z,8.60
2019-01-14T15:25:25.203Z,8.50
2019-01-14T15:27:54.758Z,8.40
2019-01-14T15:30:28.395Z,8.30
2019-01-14T15:32:57.858Z,8.20
2019-01-14T15:35:27.318Z,8.10
2019-01-14T15:37:56.821Z,7.90
2019-01-14T15:40:26.279Z,7.70
2019-01-14T15:42:55.796Z,7.70
2019-01-14T15:45:25.655Z,7.60
2019-01-14T15:47:55.121Z,7.60
2019-01-14T15:50:24.638Z,7.60
2019-01-14T15:52:54.110Z,7.50
2019-01-14T15:55:25.477Z,7.40
2019-01-14T15:57:54.898Z,7.30
2019-01-14T16:00:24.663Z,7.30
2019-01-14T16:02:54.376Z,7.30
2019-01-14T16:05:24.098Z,7.20
2019-01-14T16:07:53.576Z,7.00
2019-01-14T16:10:24.327Z,6.90
2019-01-14T16:12:53.890Z,6.90
2019-01-14T16:15:23.381Z,6.90
2019-01-14T16:17:52.841Z,7.00
2019-01-14T16:20:23.634Z,7.00
2019-01-14T16:22:53.122Z,7.00
2019-01-14T16:25:22.587Z,7.10
2019-01-14T16:27:52.094Z,7.10
2019-01-14T16:30:25.178Z,7.00
2019-01-14T16:32:54.642Z,6.90
2019-01-14T16:35:24.126Z,7.10
2019-01-14T16:37:53.611Z,7.10
2019-01-14T16:40:23.063Z,7.00
2019-01-14T16:42:52.549Z,6.90
2019-01-14T16:45:23.314Z,6.90
2019-01-14T16:47:52.792Z,6.80
2019-01-14T16:50:22.277Z,6.70
2019-01-14T16:52:51.790Z,6.60
2019-01-14T16:55:23.018Z,6.60
2019-01-14T16:57:52.522Z,6.50
2019-01-14T17:00:21.982Z,6.40
2019-01-14T17:02:51.622Z,6.20
2019-01-14T17:05:21.093Z,6.20
2019-01-14T17:07:50.631Z,6.10
2019-01-14T17:10:25.145Z,6.00
2019-01-14T17:12:51.321Z,6.00
2019-01-14T17:15:20.793Z,5.90
2019-01-14T17:17:50.232Z,5.80
2019-01-14T17:20:20.616Z,5.80
2019-01-14T17:22:50.366Z,5.70
2019-01-14T17:25:19.920Z,5.70
2019-01-14T17:27:49.531Z,5.80
2019-01-14T17:30:19.002Z,5.80
2019-01-14T17:32:48.456Z,5.70
2019-01-14T17:35:18.242Z,5.80
2019-01-14T17:37:47.725Z,5.80
2019-01-14T17:40:20.207Z,5.80
2019-01-14T17:42:49.690Z,5.80
2019-01-14T17:45:19.239Z,5.80
2019-01-14T17:47:48.693Z,5.80
2019-01-14T17:50:20.156Z,5.90
2019-01-14T17:52:49.632Z,5.90
2019-01-14T17:55:19.097Z,5.90
2019-01-14T17:57:48.590Z,5.90
2019-01-14T18:00:23.835Z,5.90
2019-01-14T18:02:53.295Z,5.90
2019-01-14T18:05:22.791Z,5.80
2019-01-14T18:07:52.258Z,5.80
2019-01-14T18:10:21.838Z,5.80
2019-01-14T18:12:51.479Z,5.90
2019-01-14T18:15:20.908Z,6.00
2019-01-14T18:17:50.388Z,6.00
2019-01-14T18:20:20.062Z,6.00
2019-01-14T18:22:49.526Z,6.00
2019-01-14T18:25:18.998Z,6.00
2019-01-14T18:27:48.494Z,6.00
2019-01-14T18:30:20.149Z,6.00
2019-01-14T18:32:49.971Z,6.00
2019-01-14T18:35:19.450Z,5.90
2019-01-14T18:37:49.000Z,5.80
2019-01-14T18:40:19.070Z,5.80
2019-01-14T18:42:48.945Z,5.80
2019-01-14T18:45:19.010Z,5.80
2019-01-14T18:47:48.473Z,5.70
2019-01-14T18:50:20.565Z,5.60
2019-01-14T18:52:50.028Z,5.40
2019-01-14T18:55:19.525Z,5.30
2019-01-14T18:57:48.977Z,5.30
2019-01-14T19:00:21.142Z,5.20
2019-01-14T19:02:50.653Z,5.10
2019-01-14T19:05:20.428Z,5.20
2019-01-14T19:07:50.091Z,5.20
2019-01-14T19:10:19.584Z,5.10
2019-01-14T19:12:49.012Z,4.90
2019-01-14T19:15:19.836Z,5.00
2019-01-14T19:17:49.288Z,4.90
2019-01-14T19:20:22.251Z,4.90
2019-01-14T19:22:51.771Z,4.90
2019-01-14T19:25:21.308Z,4.90
2019-01-14T19:27:50.816Z,4.90
2019-01-14T19:30:21.826Z,5.00
2019-01-14T19:32:51.281Z,4.90
2019-01-14T19:35:20.758Z,4.90
2019-01-14T19:37:50.428Z,5.00
2019-01-14T19:40:20.489Z,5.00
2019-01-14T19:42:49.967Z,5.10
2019-01-14T19:45:21.457Z,5.10
2019-01-14T19:47:50.945Z,5.20
2019-01-14T19:50:22.137Z,5.20
2019-01-14T19:52:51.632Z,5.10
2019-01-14T19:55:21.095Z,4.90
2019-01-14T19:57:50.585Z,4.70
2019-01-14T20:00:26.036Z,4.50
2019-01-14T20:02:55.491Z,4.40
2019-01-14T20:05:24.984Z,4.20
2019-01-14T20:07:54.858Z,4.10
2019-01-14T20:10:24.335Z,3.90
2019-01-14T20:12:53.859Z,3.80
2019-01-14T20:15:23.431Z,3.80
2019-01-14T20:17:53.184Z,3.70
2019-01-14T20:20:22.681Z,3.60
2019-01-14T20:22:52.148Z,3.50
2019-01-14T20:25:21.628Z,3.50
2019-01-14T20:27:51.123Z,3.50
2019-01-14T20:30:22.285Z,3.50
2019-01-14T20:32:51.760Z,3.50
2019-01-14T20:35:22.747Z,3.50
2019-01-14T20:37:56.423Z,3.60
2019-01-14T20:40:25.991Z,3.50
2019-01-14T20:42:55.479Z,3.50
2019-01-14T20:45:24.941Z,3.50
2019-01-14T20:47:54.443Z,3.50
2019-01-14T20:50:23.899Z,3.60
2019-01-14T20:52:53.416Z,3.60
2019-01-14T20:55:22.966Z,3.60
2019-01-14T20:57:52.427Z,3.70
2019-01-14T21:00:23.817Z,3.70
2019-01-14T21:02:53.401Z,3.70
2019-01-14T21:05:22.908Z,3.70
2019-01-14T21:07:52.367Z,3.70
2019-01-14T21:10:21.880Z,3.80
2019-01-14T21:12:51.332Z,3.80
2019-01-14T21:15:20.890Z,3.70
2019-01-14T21:17:50.400Z,3.70
2019-01-14T21:20:22.808Z,3.70
2019-01-14T21:22:52.318Z,3.80
2019-01-14T21:25:21.955Z,3.80
2019-01-14T21:27:51.398Z,3.80
2019-01-14T21:30:24.252Z,3.80
2019-01-14T21:32:53.741Z,3.80
2019-01-14T21:35:23.222Z,3.70
2019-01-14T21:37:52.971Z,3.70
2019-01-14T21:40:22.474Z,3.50
2019-01-14T21:42:51.945Z,3.30
2019-01-14T21:45:21.925Z,3.10
2019-01-14T21:47:51.513Z,3.00
2019-01-14T21:50:21.679Z,2.90
2019-01-14T21:52:51.148Z,2.80
2019-01-14T21:55:22.740Z,2.70
2019-01-14T21:57:52.198Z,2.60
2019-01-14T22:00:23.571Z,2.50
2019-01-14T22:02:53.065Z,2.60
2019-01-14T22:05:22.540Z,2.50
2019-01-14T22:07:52.066Z,2.60
2019-01-14T22:10:24.909Z,2.60
2019-01-14T22:12:54.350Z,2.60
2019-01-14T22:15:23.829Z,2.70
2019-01-14T22:17:53.328Z,2.70
2019-01-14T22:20:26.051Z,2.70
2019-01-14T22:22:55.536Z,2.80
2019-01-14T22:25:25.030Z,2.80
2019-01-14T22:27:54.498Z,2.80
2019-01-14T22:30:27.655Z,2.70
2019-01-14T22:32:57.150Z,2.60
2019-01-14T22:35:26.647Z,2.60
2019-01-14T22:37:56.100Z,2.60
2019-01-14T22:40:25.609Z,2.60
2019-01-14T22:42:55.066Z,2.50
2019-01-14T22:45:24.548Z,2.50
2019-01-14T22:47:54.059Z,2.50
2019-01-14T22:50:23.468Z,2.40
2019-01-14T22:52:52.952Z,2.40
2019-01-14T22:55:22.387Z,2.30
2019-01-14T22:58:11.193Z,2.30
2019-01-14T23:00:58.784Z,2.30
2019-01-14T23:03:28.251Z,2.30
2019-01-14T23:05:57.818Z,2.30
2019-01-14T23:08:27.428Z,2.30
2019-01-14T23:10:56.888Z,2.30
2019-01-14T23:13:26.366Z,2.30
2019-01-14T23:15:56.007Z,2.30
2019-01-14T23:18:25.488Z,2.30
2019-01-14T23:20:54.975Z,2.30
2019-01-14T23:23:24.487Z,2.30
2019-01-14T23:25:53.980Z,2.30
2019-01-14T23:28:23.474Z,2.30
2019-01-14T23:30:52.960Z,2.40
2019-01-14T23:33:22.431Z,2.30
2019-01-14T23:35:52.234Z,2.30
2019-01-14T23:38:21.743Z,2.20
2019-01-14T23:40:51.191Z,2.20
2019-01-14T23:43:20.665Z,2.20
2019-01-14T23:45:50.255Z,2.30
2019-01-14T23:48:19.733Z,2.20
2019-01-14T23:50:49.194Z,2.10
2019-01-14T23:53:18.691Z,2.10
2019-01-14T23:55:48.164Z,2.10
2019-01-14T23:58:17.622Z,2.00
